createdAt,value
2023-04-19T00:00:46.326Z,102164.19
2023-04-19T00:03:14.585Z,102166.63
2023-04-19T00:05:41.673Z,102161.25
2023-04-19T00:08:08.820Z,102162.84
2023-04-19T00:10:39.986Z,102164.97
2023-04-19T00:13:06.711Z,102157.19
2023-04-19T00:15:35.099Z,102147.31
2023-04-19T00:18:01.981Z,102145.38
2023-04-19T00:20:28.798Z,102141.69
2023-04-19T00:22:55.475Z,102141.72
2023-04-19T00:25:22.105Z,102144.97
2023-04-19T00:27:48.695Z,102138.94
2023-04-19T00:30:15.302Z,102140.50
2023-04-19T00:32:42.039Z,102136.84
2023-04-19T00:35:08.998Z,102140.34
2023-04-19T00:37:35.819Z,102142.16
2023-04-19T00:40:02.443Z,102140.03
2023-04-19T00:42:29.073Z,102149.50
2023-04-19T00:44:55.719Z,102145.09
2023-04-19T00:47:22.437Z,102135.03
2023-04-19T00:49:49.140Z,102136.63
2023-04-19T00:52:15.833Z,102133.75
2023-04-19T00:54:42.710Z,102126.72
2023-04-19T00:57:09.390Z,102140.22
2023-04-19T00:59:36.097Z,102128.84
2023-04-19T01:02:02.833Z,102138.53
2023-04-19T01:04:29.706Z,102129.59
2023-04-19T01:06:56.440Z,102130.19
2023-04-19T01:09:23.029Z,102130.00
2023-04-19T01:11:50.859Z,102121.59
2023-04-19T01:14:17.668Z,102114.88
2023-04-19T01:16:45.542Z,102116.81
2023-04-19T01:19:12.450Z,102125.03
2023-04-19T01:21:40.176Z,102119.19
2023-04-19T01:24:07.169Z,102116.28
2023-04-19T01:26:33.832Z,102111.59
2023-04-19T01:29:00.419Z,102103.47
2023-04-19T01:31:27.027Z,102103.31
2023-04-19T01:33:53.646Z,102100.88
2023-04-19T01:36:20.368Z,102100.78
2023-04-19T01:38:49.766Z,102098.91
2023-04-19T01:41:16.460Z,102097.47
2023-04-19T01:43:43.074Z,102088.94
2023-04-19T01:46:09.725Z,102089.88
2023-04-19T01:48:36.348Z,102089.09
2023-04-19T01:51:03.004Z,102080.22
2023-04-19T01:53:29.625Z,102075.00
2023-04-19T01:55:56.248Z,102075.28
2023-04-19T01:58:22.859Z,102072.41
2023-04-19T02:00:49.481Z,102078.38
2023-04-19T02:03:16.340Z,102071.63
2023-04-19T02:05:43.230Z,102065.72
2023-04-19T02:08:09.848Z,102069.97
2023-04-19T02:10:36.621Z,102070.38
2023-04-19T02:13:03.482Z,102065.16
2023-04-19T02:15:30.177Z,102066.91
2023-04-19T02:17:56.869Z,102067.91
2023-04-19T02:20:24.534Z,102067.31
2023-04-19T02:22:51.150Z,102060.81
2023-04-19T02:25:19.461Z,102059.66
2023-04-19T02:27:46.300Z,102057.59
2023-04-19T02:30:13.228Z,102058.50
2023-04-19T02:32:39.919Z,102053.63
2023-04-19T02:35:06.955Z,102055.16
2023-04-19T02:37:33.660Z,102044.53
2023-04-19T02:40:00.436Z,102038.34
2023-04-19T02:42:27.143Z,102034.69
2023-04-19T02:44:54.305Z,102035.41
2023-04-19T02:47:20.975Z,102022.81
2023-04-19T02:49:47.628Z,102025.25
2023-04-19T02:52:14.694Z,102022.88
2023-04-19T02:54:41.346Z,102023.03
2023-04-19T02:57:07.935Z,102017.63
2023-04-19T02:59:34.583Z,102021.84
2023-04-19T03:02:01.307Z,102014.09
2023-04-19T03:04:29.041Z,102006.53
2023-04-19T03:06:55.755Z,102006.88
2023-04-19T03:09:22.400Z,101997.88
2023-04-19T03:11:49.065Z,101999.50
2023-04-19T03:14:15.871Z,102002.56
2023-04-19T03:16:42.636Z,102004.75
2023-04-19T03:19:09.293Z,101998.06
2023-04-19T03:21:35.920Z,101995.22
2023-04-19T03:24:02.767Z,101992.59
2023-04-19T03:26:29.526Z,101989.19
2023-04-19T03:28:56.143Z,101987.28
2023-04-19T03:31:22.813Z,101992.09
2023-04-19T03:33:49.493Z,101981.09
2023-04-19T03:36:16.410Z,101978.56
2023-04-19T03:38:44.502Z,101986.31
2023-04-19T03:41:21.603Z,101975.53
2023-04-19T03:43:48.261Z,101978.72
2023-04-19T03:46:14.963Z,101976.69
2023-04-19T03:48:41.589Z,101977.97
2023-04-19T03:51:08.296Z,101976.31
2023-04-19T03:53:36.076Z,101977.00
2023-04-19T03:56:02.959Z,101973.81
2023-04-19T03:58:29.581Z,101961.56
2023-04-19T04:00:56.220Z,101965.47
2023-04-19T04:03:23.036Z,101971.13
2023-04-19T04:05:49.875Z,101963.22
2023-04-19T04:08:16.484Z,101953.88
2023-04-19T04:10:43.190Z,101955.72
2023-04-19T04:13:09.983Z,101955.75
2023-04-19T04:15:36.726Z,101958.31
2023-04-19T04:18:03.508Z,101951.59
2023-04-19T04:20:30.700Z,101956.06
2023-04-19T04:22:57.349Z,101956.41
2023-04-19T04:25:24.405Z,101959.06
2023-04-19T04:27:52.356Z,101955.34
2023-04-19T04:30:19.017Z,101959.00
2023-04-19T04:32:46.959Z,101957.38
2023-04-19T04:35:13.704Z,101953.34
2023-04-19T04:37:40.309Z,101959.72
2023-04-19T04:40:08.982Z,101955.69
2023-04-19T04:42:35.739Z,101959.22
2023-04-19T04:45:02.433Z,101942.59
2023-04-19T04:47:33.937Z,101943.59
2023-04-19T04:50:00.811Z,101947.56
2023-04-19T04:52:27.416Z,101945.16
2023-04-19T04:54:54.150Z,101940.09
2023-04-19T04:57:21.229Z,101944.66
2023-04-19T04:59:48.351Z,101936.88
2023-04-19T05:02:15.577Z,101936.38
2023-04-19T05:04:42.977Z,101939.41
2023-04-19T05:07:10.061Z,101941.34
2023-04-19T05:09:36.795Z,101938.22
2023-04-19T05:12:03.601Z,101932.59
2023-04-19T05:14:30.644Z,101934.41
2023-04-19T05:16:57.425Z,101919.97
2023-04-19T05:19:24.208Z,101929.84
2023-04-19T05:21:52.025Z,101919.69
2023-04-19T05:24:19.132Z,101941.59
2023-04-19T05:26:46.041Z,101932.44
2023-04-19T05:29:14.490Z,101923.94
2023-04-19T05:31:41.208Z,101928.75
2023-04-19T05:34:07.920Z,101929.06
2023-04-19T05:36:34.979Z,101918.81
2023-04-19T05:39:01.789Z,101925.38
2023-04-19T05:41:28.421Z,101913.59
2023-04-19T05:43:55.218Z,101916.63
2023-04-19T05:46:21.898Z,101917.91
2023-04-19T05:48:48.589Z,101912.28
2023-04-19T05:51:17.469Z,101913.16
2023-04-19T05:53:44.885Z,101904.34
2023-04-19T05:56:11.578Z,101910.56
2023-04-19T05:58:38.308Z,101905.41
2023-04-19T06:01:05.005Z,101897.59
2023-04-19T06:03:33.508Z,101908.28
2023-04-19T06:06:00.700Z,101901.50
2023-04-19T06:08:27.469Z,101903.50
2023-04-19T06:11:00.113Z,101903.50
2023-04-19T06:13:31.851Z,101892.59
2023-04-19T06:15:58.596Z,101884.28
2023-04-19T06:18:25.415Z,101888.63
2023-04-19T06:20:53.282Z,101885.19
2023-04-19T06:23:20.447Z,101889.94
2023-04-19T06:25:48.997Z,101875.22
2023-04-19T06:28:16.124Z,101874.06
2023-04-19T06:30:42.932Z,101879.59
2023-04-19T06:33:09.629Z,101865.59
2023-04-19T06:35:36.366Z,101867.78
2023-04-19T06:38:03.087Z,101861.41
2023-04-19T06:40:29.961Z,101846.47
2023-04-19T06:42:56.695Z,101844.97
2023-04-19T06:45:23.387Z,101856.63
2023-04-19T06:47:51.409Z,101856.78
2023-04-19T06:50:18.220Z,101858.47
2023-04-19T06:52:45.036Z,101862.88
2023-04-19T06:55:11.853Z,101841.78
2023-04-19T06:57:38.683Z,101853.25
2023-04-19T07:00:06.784Z,101850.63
2023-04-19T07:02:35.630Z,101839.13
2023-04-19T07:05:02.391Z,101834.72
2023-04-19T07:07:29.099Z,101817.97
2023-04-19T07:09:55.752Z,101825.06
2023-04-19T07:12:22.679Z,101829.44
2023-04-19T07:14:49.614Z,101818.00
2023-04-19T07:17:18.296Z,101821.53
2023-04-19T07:19:48.522Z,101818.00
2023-04-19T07:22:15.872Z,101796.91
2023-04-19T07:24:44.597Z,101801.28
2023-04-19T07:27:11.460Z,101807.47
2023-04-19T07:29:38.084Z,101803.06
2023-04-19T07:32:05.265Z,101798.63
2023-04-19T07:34:31.986Z,101778.41
2023-04-19T07:36:58.734Z,101785.47
2023-04-19T07:39:25.419Z,101806.56
2023-04-19T07:41:52.144Z,101796.84
2023-04-19T07:44:19.247Z,101797.69
2023-04-19T07:46:46.432Z,101804.81
2023-04-19T07:49:13.855Z,101778.34
2023-04-19T07:51:40.503Z,101795.91
2023-04-19T07:54:07.326Z,101783.56
2023-04-19T07:56:34.044Z,101780.13
2023-04-19T07:59:08.253Z,101786.19
2023-04-19T08:01:37.131Z,101777.28
2023-04-19T08:04:04.421Z,101790.59
2023-04-19T08:06:31.941Z,101768.59
2023-04-19T08:08:58.865Z,101776.53
2023-04-19T08:11:25.780Z,101789.78
2023-04-19T08:14:04.777Z,101788.00
2023-04-19T08:19:05.466Z,101776.66
2023-04-19T08:21:40.752Z,101785.44
2023-04-19T08:24:08.569Z,101775.78
2023-04-19T08:26:35.541Z,101781.03
2023-04-19T08:29:02.558Z,101772.25
2023-04-19T08:31:29.346Z,101784.56
2023-04-19T08:33:57.030Z,101790.72
2023-04-19T08:36:37.169Z,101784.56
2023-04-19T08:39:14.751Z,101783.69
2023-04-19T08:41:41.899Z,101781.06
2023-04-19T08:44:11.154Z,101784.53
2023-04-19T08:46:37.891Z,101773.06
2023-04-19T08:49:06.011Z,101764.31
2023-04-19T08:51:33.080Z,101765.22
2023-04-19T08:53:59.890Z,101781.03
2023-04-19T08:56:35.286Z,101759.03
2023-04-19T08:59:15.616Z,101730.03
2023-04-19T09:01:47.306Z,101751.13
2023-04-19T09:04:31.478Z,101768.75
2023-04-19T09:07:01.049Z,101755.50
2023-04-19T09:11:59.865Z,101754.56
2023-04-19T09:14:28.101Z,101768.66
2023-04-19T09:17:12.673Z,101752.88
2023-04-19T09:19:46.727Z,101758.16
2023-04-19T09:22:13.878Z,101755.53
2023-04-19T09:27:12.355Z,101748.50
2023-04-19T09:29:39.599Z,101731.78
2023-04-19T09:32:06.495Z,101731.78
2023-04-19T09:34:33.300Z,101743.19
2023-04-19T09:37:21.427Z,101714.19
2023-04-19T09:39:54.864Z,101720.34
2023-04-19T09:42:38.432Z,101714.97
2023-04-19T09:47:38.868Z,101711.06
2023-04-19T09:50:15.270Z,101718.28
2023-04-19T09:52:48.752Z,101708.53
2023-04-19T09:55:26.648Z,101708.56
2023-04-19T09:57:55.176Z,101710.47
2023-04-19T10:00:23.678Z,101715.78
2023-04-19T10:02:57.036Z,101695.25
2023-04-19T10:05:25.582Z,101699.66
2023-04-19T10:07:55.651Z,101686.38
2023-04-19T10:10:36.226Z,101696.78
2023-04-19T10:13:20.211Z,101695.66
2023-04-19T10:15:52.533Z,101706.28
2023-04-19T10:18:24.425Z,101699.25
2023-04-19T10:21:02.622Z,101679.41
2023-04-19T10:23:30.168Z,101689.03
2023-04-19T10:25:57.995Z,101692.50
2023-04-19T10:28:25.343Z,101693.47
2023-04-19T10:31:01.065Z,101689.84
2023-04-19T10:33:29.117Z,101698.50
2023-04-19T10:35:56.818Z,101698.63
2023-04-19T10:38:41.506Z,101692.50
2023-04-19T10:41:18.708Z,101677.50
2023-04-19T10:43:55.805Z,101675.03
2023-04-19T10:46:23.156Z,101688.09
2023-04-19T10:48:59.734Z,101654.75
2023-04-19T10:51:28.265Z,101661.09
2023-04-19T10:54:17.664Z,101660.66
2023-04-19T10:57:10.277Z,101661.25
2023-04-19T10:59:41.499Z,101661.84
2023-04-19T11:02:24.819Z,101660.50
2023-04-19T11:04:52.125Z,101665.81
2023-04-19T11:07:20.369Z,101667.63
2023-04-19T11:09:48.708Z,101655.31
2023-04-19T11:12:16.850Z,101654.41
2023-04-19T11:14:45.457Z,101656.13
2023-04-19T11:17:19.540Z,101655.31
2023-04-19T11:19:56.172Z,101653.38
2023-04-19T11:22:37.186Z,101646.38
2023-04-19T11:25:17.559Z,101649.06
2023-04-19T11:27:45.824Z,101642.91
2023-04-19T11:30:19.446Z,101642.06
2023-04-19T11:32:53.824Z,101625.81
2023-04-19T11:35:22.332Z,101621.22
2023-04-19T11:37:49.530Z,101615.31
2023-04-19T11:40:17.549Z,101609.94
2023-04-19T11:42:44.851Z,101622.34
2023-04-19T11:45:26.106Z,101610.19
2023-04-19T11:47:56.968Z,101615.78
2023-04-19T11:50:35.822Z,101599.00
2023-04-19T11:53:12.592Z,101588.88
2023-04-19T11:55:39.466Z,101582.81
2023-04-19T11:58:12.086Z,101583.25
2023-04-19T12:00:38.802Z,101580.50
2023-04-19T12:03:05.873Z,101559.28
2023-04-19T12:05:32.820Z,101575.66
2023-04-19T12:08:08.411Z,101569.97
2023-04-19T12:10:35.989Z,101568.97
2023-04-19T12:13:16.994Z,101570.16
2023-04-19T12:15:44.681Z,101569.06
2023-04-19T12:18:11.423Z,101551.28
2023-04-19T12:20:43.401Z,101545.75
2023-04-19T12:23:13.822Z,101559.38
2023-04-19T12:25:41.291Z,101547.84
2023-04-19T12:28:08.193Z,101545.69
2023-04-19T12:30:38.374Z,101543.28
2023-04-19T12:33:06.197Z,101551.69
2023-04-19T12:35:34.019Z,101540.09
2023-04-19T12:38:00.987Z,101526.56
2023-04-19T12:40:27.776Z,101538.69
2023-04-19T12:42:54.915Z,101532.41
2023-04-19T12:45:21.575Z,101532.31
2023-04-19T12:47:48.891Z,101519.88
2023-04-19T12:50:16.192Z,101519.44
2023-04-19T12:52:44.173Z,101531.88
2023-04-19T12:55:10.778Z,101510.06
2023-04-19T12:57:37.347Z,101517.81
2023-04-19T13:00:05.955Z,101510.47
2023-04-19T13:02:34.611Z,101511.22
2023-04-19T13:05:01.631Z,101514.56
2023-04-19T13:07:28.724Z,101511.03
2023-04-19T13:09:56.744Z,101512.88
2023-04-19T13:12:24.190Z,101524.00
2023-04-19T13:14:52.498Z,101509.94
2023-04-19T13:17:19.949Z,101499.19
2023-04-19T13:19:47.498Z,101499.75
2023-04-19T13:22:14.260Z,101507.34
2023-04-19T13:24:41.088Z,101506.34
2023-04-19T13:27:09.103Z,101497.47
2023-04-19T13:29:36.309Z,101500.09
2023-04-19T13:32:03.217Z,101500.34
2023-04-19T13:34:29.825Z,101485.41
2023-04-19T13:36:57.668Z,101479.94
2023-04-19T13:39:24.372Z,101482.06
2023-04-19T13:41:51.282Z,101478.72
2023-04-19T13:44:18.235Z,101473.38
2023-04-19T13:46:45.149Z,101505.78
2023-04-19T13:49:11.940Z,101474.06
2023-04-19T13:51:49.029Z,101489.41
2023-04-19T13:54:20.832Z,101483.13
2023-04-19T13:56:49.843Z,101484.69
2023-04-19T13:59:18.105Z,101483.00
2023-04-19T14:01:44.881Z,101488.56
2023-04-19T14:04:11.626Z,101488.56
2023-04-19T14:06:38.436Z,101499.34
2023-04-19T14:09:05.270Z,101499.44
2023-04-19T14:11:32.281Z,101502.19
2023-04-19T14:13:58.948Z,101517.28
2023-04-19T14:16:28.054Z,101516.41
2023-04-19T14:18:54.710Z,101509.34
2023-04-19T14:21:21.311Z,101518.91
2023-04-19T14:23:47.935Z,101527.59
2023-04-19T14:26:14.662Z,101520.56
2023-04-19T14:28:41.554Z,101525.72
2023-04-19T14:31:08.331Z,101519.53
2023-04-19T14:33:34.972Z,101508.91
2023-04-19T14:36:01.979Z,101507.69
2023-04-19T14:38:28.677Z,101494.22
2023-04-19T14:40:56.565Z,101508.19
2023-04-19T14:43:23.283Z,101510.97
2023-04-19T14:45:50.067Z,101503.09
2023-04-19T14:48:16.764Z,101504.56
2023-04-19T14:50:45.082Z,101509.81
2023-04-19T14:53:11.724Z,101504.63
2023-04-19T14:55:38.704Z,101505.50
2023-04-19T14:58:05.726Z,101497.53
2023-04-19T15:00:33.199Z,101486.22
2023-04-19T15:03:00.035Z,101481.06
2023-04-19T15:05:29.782Z,101474.88
2023-04-19T15:07:56.521Z,101471.50
2023-04-19T15:10:23.102Z,101470.56
2023-04-19T15:12:49.729Z,101466.25
2023-04-19T15:15:16.490Z,101471.38
2023-04-19T15:17:43.330Z,101470.66
2023-04-19T15:20:10.207Z,101454.72
2023-04-19T15:22:36.909Z,101457.44
2023-04-19T15:25:03.908Z,101462.47
2023-04-19T15:27:31.357Z,101447.81
2023-04-19T15:29:58.019Z,101448.69
2023-04-19T15:32:24.769Z,101443.38
2023-04-19T15:34:51.606Z,101439.94
2023-04-19T15:37:18.210Z,101430.03
2023-04-19T15:39:44.921Z,101419.66
2023-04-19T15:42:11.581Z,101417.03
2023-04-19T15:44:38.196Z,101402.25
2023-04-19T15:47:05.086Z,101392.56
2023-04-19T15:49:31.773Z,101408.25
2023-04-19T15:51:58.374Z,101411.28
2023-04-19T15:54:25.038Z,101408.78
2023-04-19T15:56:51.686Z,101406.25
2023-04-19T15:59:18.507Z,101406.38
2023-04-19T16:01:45.294Z,101407.22
2023-04-19T16:04:15.115Z,101404.47
2023-04-19T16:06:41.950Z,101409.66
2023-04-19T16:09:09.243Z,101407.91
2023-04-19T16:11:35.884Z,101407.00
2023-04-19T16:14:02.541Z,101407.78
2023-04-19T16:16:32.951Z,101394.63
2023-04-19T16:18:59.721Z,101385.84
2023-04-19T16:21:28.731Z,101399.78
2023-04-19T16:23:56.107Z,101404.19
2023-04-19T16:26:23.157Z,101402.44
2023-04-19T16:28:49.831Z,101397.09
2023-04-19T16:31:16.450Z,101409.34
2023-04-19T16:33:43.127Z,101401.38
2023-04-19T16:36:09.779Z,101399.66
2023-04-19T16:38:36.457Z,101406.63
2023-04-19T16:41:05.412Z,101411.78
2023-04-19T16:43:32.120Z,101410.97
2023-04-19T16:45:58.789Z,101410.19
2023-04-19T16:48:27.034Z,101415.41
2023-04-19T16:50:53.665Z,101412.84
2023-04-19T16:53:20.439Z,101417.88
2023-04-19T16:55:47.093Z,101408.28
2023-04-19T16:58:16.777Z,101407.47
2023-04-19T17:00:43.432Z,101411.00
2023-04-19T17:03:10.278Z,101407.47
2023-04-19T17:05:37.054Z,101417.13
2023-04-19T17:08:03.710Z,101412.84
2023-04-19T17:10:30.423Z,101414.59
2023-04-19T17:12:57.144Z,101413.63
2023-04-19T17:15:23.835Z,101414.38
2023-04-19T17:17:50.667Z,101410.97
2023-04-19T17:20:17.415Z,101412.63
2023-04-19T17:22:44.051Z,101413.53
2023-04-19T17:25:10.699Z,101410.03
2023-04-19T17:27:37.290Z,101414.50
2023-04-19T17:30:07.091Z,101426.72
2023-04-19T17:32:33.839Z,101425.75
2023-04-19T17:35:00.565Z,101420.19
2023-04-19T17:37:27.164Z,101423.75
2023-04-19T17:39:53.784Z,101425.63
2023-04-19T17:42:20.617Z,101425.66
2023-04-19T17:44:47.587Z,101416.91
2023-04-19T17:47:14.195Z,101419.53
2023-04-19T17:49:41.277Z,101423.03
2023-04-19T17:52:07.938Z,101420.28
2023-04-19T17:54:34.600Z,101420.31
2023-04-19T17:57:02.554Z,101423.75
2023-04-19T17:59:29.503Z,101429.03
2023-04-19T18:01:58.073Z,101430.72
2023-04-19T18:04:24.935Z,101435.19
2023-04-19T18:06:51.696Z,101441.25
2023-04-19T18:09:19.117Z,101451.63
2023-04-19T18:11:47.621Z,101451.72
2023-04-19T18:14:15.326Z,101455.13
2023-04-19T18:16:42.066Z,101458.72
2023-04-19T18:19:08.764Z,101456.97
2023-04-19T18:21:35.646Z,101459.47
2023-04-19T18:24:02.304Z,101468.28
2023-04-19T18:26:39.721Z,101465.59
2023-04-19T18:29:06.530Z,101463.69
2023-04-19T18:31:33.229Z,101457.69
2023-04-19T18:34:00.918Z,101454.13
2023-04-19T18:36:28.907Z,101457.69
2023-04-19T18:38:55.949Z,101455.97
2023-04-19T18:41:22.570Z,101460.34
2023-04-19T18:44:06.835Z,101452.38
2023-04-19T18:46:35.814Z,101453.25
2023-04-19T18:49:02.425Z,101464.59
2023-04-19T18:51:29.068Z,101461.09
2023-04-19T18:53:55.661Z,101465.59
2023-04-19T18:56:30.787Z,101451.63
2023-04-19T18:59:08.967Z,101460.44
2023-04-19T19:01:35.971Z,101462.97
2023-04-19T19:06:33.518Z,101467.44
2023-04-19T19:09:00.665Z,101470.97
2023-04-19T19:11:54.281Z,101478.00
2023-04-19T19:14:14.283Z,101466.59
2023-04-19T19:16:51.409Z,101478.53
2023-04-19T19:19:20.706Z,101477.81
2023-04-19T19:21:47.507Z,101470.91
2023-04-19T19:24:14.152Z,101468.19
2023-04-19T19:26:40.824Z,101467.47
2023-04-19T19:29:09.320Z,101470.81
2023-04-19T19:31:36.640Z,101474.41
2023-04-19T19:34:14.772Z,101474.53
2023-04-19T19:36:49.186Z,101480.41
2023-04-19T19:39:16.152Z,101481.44
2023-04-19T19:44:12.591Z,101473.56
2023-04-19T19:46:39.425Z,101478.00
2023-04-19T19:49:06.614Z,101472.72
2023-04-19T19:51:52.166Z,101479.63
2023-04-19T19:54:19.923Z,101494.50
2023-04-19T19:57:21.783Z,101489.25
2023-04-19T19:59:34.738Z,101497.16
2023-04-19T20:02:03.527Z,101488.28
2023-04-19T20:04:31.493Z,101497.91
2023-04-19T20:07:28.716Z,101496.03
2023-04-19T20:09:45.266Z,101502.13
2023-04-19T20:12:13.555Z,101512.63
2023-04-19T20:14:40.897Z,101511.63
2023-04-19T20:17:07.611Z,101518.63
2023-04-19T20:19:34.375Z,101519.50
2023-04-19T20:22:01.039Z,101515.22
2023-04-19T20:24:28.028Z,101519.44
2023-04-19T20:26:54.664Z,101526.47
2023-04-19T20:29:21.475Z,101526.72
2023-04-19T20:31:48.126Z,101520.56
2023-04-19T20:34:14.775Z,101513.41
2023-04-19T20:36:41.722Z,101505.50
2023-04-19T20:39:09.773Z,101497.88
2023-04-19T20:41:36.665Z,101501.41
2023-04-19T20:44:05.038Z,101504.72
2023-04-19T20:46:34.598Z,101501.25
2023-04-19T20:49:01.259Z,101507.53
2023-04-19T20:51:27.915Z,101511.88
2023-04-19T20:53:54.532Z,101512.50
2023-04-19T20:56:21.625Z,101506.38
2023-04-19T20:58:48.226Z,101511.00
2023-04-19T21:01:18.152Z,101507.50
2023-04-19T21:03:45.265Z,101515.34
2023-04-19T21:06:12.557Z,101512.69
2023-04-19T21:08:39.386Z,101514.50
2023-04-19T21:11:06.096Z,101513.50
2023-04-19T21:13:33.227Z,101514.25
2023-04-19T21:16:00.059Z,101514.50
2023-04-19T21:18:29.733Z,101521.44
2023-04-19T21:20:57.109Z,101510.13
2023-04-19T21:23:23.761Z,101522.31
2023-04-19T21:25:50.830Z,101523.97
2023-04-19T21:28:17.554Z,101513.72
2023-04-19T21:30:44.184Z,101518.94
2023-04-19T21:33:11.092Z,101510.16
2023-04-19T21:35:37.880Z,101510.72
2023-04-19T21:38:04.585Z,101513.03
2023-04-19T21:40:31.182Z,101517.56
2023-04-19T21:42:57.874Z,101509.88
2023-04-19T21:45:24.464Z,101506.63
2023-04-19T21:47:51.461Z,101496.03
2023-04-19T21:50:18.153Z,101497.84
2023-04-19T21:52:45.028Z,101503.63
2023-04-19T21:55:11.641Z,101502.84
2023-04-19T21:57:38.576Z,101504.66
2023-04-19T22:00:11.502Z,101500.28
2023-04-19T22:02:38.300Z,101496.81
2023-04-19T22:05:07.326Z,101488.00
2023-04-19T22:07:37.369Z,101486.38
2023-04-19T22:10:06.069Z,101486.25
2023-04-19T22:12:34.130Z,101489.69
2023-04-19T22:15:02.215Z,101497.53
2023-04-19T22:17:29.621Z,101488.84
2023-04-19T22:19:56.310Z,101493.22
2023-04-19T22:22:22.959Z,101485.19
2023-04-19T22:24:57.587Z,101493.16
2023-04-19T22:27:25.155Z,101488.00
2023-04-19T22:29:51.761Z,101494.91
2023-04-19T22:32:18.587Z,101487.78
2023-04-19T22:34:45.617Z,101496.53
2023-04-19T22:37:12.225Z,101484.44
2023-04-19T22:39:38.899Z,101494.09
2023-04-19T22:42:05.675Z,101495.75
2023-04-19T22:44:32.292Z,101491.38
2023-04-19T22:47:03.247Z,101494.03
2023-04-19T22:49:30.146Z,101493.91
2023-04-19T22:51:58.530Z,101486.88
2023-04-19T22:54:25.865Z,101499.91
2023-04-19T22:56:52.498Z,101493.03
2023-04-19T22:59:19.207Z,101478.38
2023-04-19T23:01:46.035Z,101480.25
2023-04-19T23:04:15.964Z,101477.53
2023-04-19T23:06:44.082Z,101468.53
2023-04-19T23:09:13.932Z,101470.41
2023-04-19T23:11:41.332Z,101465.28
2023-04-19T23:14:10.395Z,101462.59
2023-04-19T23:16:38.712Z,101462.44
2023-04-19T23:19:07.517Z,101458.13
2023-04-19T23:21:34.461Z,101454.44
2023-04-19T23:24:01.109Z,101437.09
2023-04-19T23:26:27.724Z,101434.50
2023-04-19T23:28:54.333Z,101449.34
2023-04-19T23:31:21.106Z,101439.91
2023-04-19T23:33:48.247Z,101435.50
2023-04-19T23:36:14.994Z,101429.31
2023-04-19T23:38:41.772Z,101439.75
2023-04-19T23:41:11.271Z,101432.91
2023-04-19T23:43:38.193Z,101425.06
2023-04-19T23:46:04.993Z,101434.66
2023-04-19T23:48:31.651Z,101432.00
2023-04-19T23:50:58.262Z,101425.94
2023-04-19T23:53:24.899Z,101438.09
2023-04-19T23:55:51.489Z,101420.66
2023-04-19T23:58:18.358Z,101417.84
